createdAt,value
2022-10-23T00:00:07.834Z,94368.34
2022-10-23T00:02:34.350Z,94370.38
2022-10-23T00:05:00.792Z,94382.84
2022-10-23T00:07:27.231Z,94392.09
2022-10-23T00:09:53.819Z,94380.03
2022-10-23T00:12:20.181Z,94358.25
2022-10-23T00:14:46.563Z,94344.19
2022-10-23T00:17:13.569Z,94340.16
2022-10-23T00:19:40.025Z,94340.34
2022-10-23T00:22:08.090Z,94329.06
2022-10-23T00:24:34.470Z,94325.66
2022-10-23T00:27:00.851Z,94309.94
2022-10-23T00:29:28.357Z,94304.72
2022-10-23T00:31:54.719Z,94292.59
2022-10-23T00:34:21.140Z,94294.63
2022-10-23T00:36:47.506Z,94283.13
2022-10-23T00:39:13.905Z,94271.84
2022-10-23T00:41:40.289Z,94266.84
2022-10-23T00:44:08.037Z,94259.97
2022-10-23T00:46:35.448Z,94254.72
2022-10-23T00:49:01.913Z,94249.72
2022-10-23T00:51:31.103Z,94256.94
2022-10-23T00:54:06.740Z,94234.00
2022-10-23T00:56:45.096Z,94221.31
2022-10-23T00:59:11.520Z,94204.78
2022-10-23T01:01:38.006Z,94199.53
2022-10-23T01:04:05.652Z,94181.22
2022-10-23T01:06:36.318Z,94177.00
2022-10-23T01:09:21.536Z,94166.53
2022-10-23T01:12:01.392Z,94161.28
2022-10-23T01:14:56.565Z,94148.19
2022-10-23T01:17:25.109Z,94115.78
2022-10-23T01:20:12.440Z,94101.69
2022-10-23T01:23:14.451Z,94090.81
2022-10-23T01:25:49.948Z,94068.66
2022-10-23T01:28:21.939Z,94067.88
2022-10-23T01:30:48.303Z,94054.16
2022-10-23T01:33:17.396Z,94031.63
2022-10-23T01:35:47.929Z,94044.13
2022-10-23T01:38:20.325Z,94035.66
2022-10-23T01:40:58.205Z,94041.50
2022-10-23T01:43:27.819Z,94053.78
2022-10-23T01:45:59.710Z,94055.81
2022-10-23T01:48:27.778Z,94052.56
2022-10-23T01:50:55.613Z,94046.94
2022-10-23T01:53:22.021Z,94051.34
2022-10-23T01:55:48.728Z,94053.19
2022-10-23T01:58:15.316Z,94048.94
2022-10-23T02:00:41.904Z,94052.56
2022-10-23T02:03:08.259Z,94044.13
2022-10-23T02:05:34.769Z,94028.41
2022-10-23T02:08:01.183Z,94031.81
2022-10-23T02:10:51.489Z,94014.72
2022-10-23T02:13:55.424Z,94021.56
2022-10-23T02:16:35.732Z,94009.28
2022-10-23T02:19:08.204Z,94013.69
2022-10-23T02:21:39.534Z,94023.59
2022-10-23T02:24:12.158Z,94029.22
2022-10-23T02:26:40.815Z,94040.50
2022-10-23T02:29:09.032Z,94046.13
2022-10-23T02:31:35.415Z,94070.50
2022-10-23T02:34:01.868Z,94080.38
2022-10-23T02:36:28.279Z,94101.28
2022-10-23T02:38:54.751Z,94124.59
2022-10-23T02:41:30.964Z,94135.50
2022-10-23T02:44:35.120Z,94155.59
2022-10-23T02:47:29.146Z,94170.69
2022-10-23T02:50:14.546Z,94184.78
2022-10-23T02:52:56.110Z,94184.97
2022-10-23T02:55:22.619Z,94197.81
2022-10-23T02:58:04.133Z,94186.16
2022-10-23T03:00:31.251Z,94195.41
2022-10-23T03:03:19.197Z,94191.75
2022-10-23T03:05:45.575Z,94200.22
2022-10-23T03:08:13.316Z,94190.75
2022-10-23T03:10:40.640Z,94194.19
2022-10-23T03:13:07.219Z,94199.41
2022-10-23T03:15:33.629Z,94203.03
2022-10-23T03:18:02.926Z,94206.66
2022-10-23T03:20:29.310Z,94198.81
2022-10-23T03:22:55.691Z,94208.00
2022-10-23T03:25:22.158Z,94207.19
2022-10-23T03:27:48.542Z,94199.78
2022-10-23T03:30:14.937Z,94204.38
2022-10-23T03:32:41.543Z,94190.97
2022-10-23T03:35:08.343Z,94195.31
2022-10-23T03:37:34.702Z,94189.50
2022-10-23T03:40:01.126Z,94174.41
2022-10-23T03:42:27.496Z,94178.03
2022-10-23T03:44:53.875Z,94164.94
2022-10-23T03:47:20.956Z,94157.13
2022-10-23T03:49:47.367Z,94164.13
2022-10-23T03:52:13.764Z,94159.50
2022-10-23T03:54:40.204Z,94185.63
2022-10-23T03:57:06.591Z,94205.72
2022-10-23T03:59:32.979Z,94213.34
2022-10-23T04:01:59.429Z,94215.94
2022-10-23T04:04:25.967Z,94227.59
2022-10-23T04:06:52.389Z,94232.41
2022-10-23T04:09:18.954Z,94241.00
2022-10-23T04:11:45.379Z,94253.88
2022-10-23T04:14:13.183Z,94281.59
2022-10-23T04:16:39.819Z,94306.50
2022-10-23T04:19:06.359Z,94320.94
2022-10-23T04:21:32.820Z,94322.56
2022-10-23T04:23:59.176Z,94337.00
2022-10-23T04:26:25.572Z,94349.81
2022-10-23T04:28:51.949Z,94332.97
2022-10-23T04:31:18.333Z,94314.50
2022-10-23T04:33:44.771Z,94315.50
2022-10-23T04:36:11.137Z,94286.97
2022-10-23T04:38:37.578Z,94293.59
2022-10-23T04:41:03.991Z,94289.16
2022-10-23T04:43:30.364Z,94294.38
2022-10-23T04:45:56.745Z,94294.59
2022-10-23T04:48:25.575Z,94300.78
2022-10-23T04:50:58.419Z,94307.66
2022-10-23T04:53:25.450Z,94302.63
2022-10-23T04:55:52.655Z,94277.91
2022-10-23T04:58:19.236Z,94260.22
2022-10-23T05:00:45.996Z,94245.38
2022-10-23T05:03:12.516Z,94239.72
2022-10-23T05:05:38.888Z,94228.47
2022-10-23T05:08:05.267Z,94224.06
2022-10-23T05:10:31.688Z,94226.03
2022-10-23T05:12:58.083Z,94233.88
2022-10-23T05:15:27.101Z,94232.88
2022-10-23T05:17:59.832Z,94228.03
2022-10-23T05:20:29.179Z,94243.28
2022-10-23T05:22:55.663Z,94256.53
2022-10-23T05:25:22.075Z,94268.19
2022-10-23T05:27:48.447Z,94265.34
2022-10-23T05:30:14.906Z,94252.28
2022-10-23T05:32:41.571Z,94244.09
2022-10-23T05:35:09.932Z,94238.88
2022-10-23T05:37:40.206Z,94247.72
2022-10-23T05:40:07.124Z,94261.13
2022-10-23T05:42:34.450Z,94256.91
2022-10-23T05:45:02.578Z,94264.94
2022-10-23T05:47:29.366Z,94260.53
2022-10-23T05:49:55.751Z,94251.31
2022-10-23T05:52:22.218Z,94239.25
2022-10-23T05:54:51.118Z,94239.25
2022-10-23T05:59:49.203Z,94268.19
2022-10-23T06:02:15.696Z,94268.19
2022-10-23T06:04:42.095Z,94280.63
2022-10-23T06:07:08.504Z,94289.88
2022-10-23T06:09:34.867Z,94294.50
2022-10-23T06:12:02.670Z,94301.94
2022-10-23T06:14:29.035Z,94288.25
2022-10-23T06:16:55.432Z,94279.41
2022-10-23T06:19:21.818Z,94263.38
2022-10-23T06:21:48.232Z,94227.63
2022-10-23T06:24:14.656Z,94197.53
2022-10-23T06:26:41.054Z,94155.94
2022-10-23T06:29:07.468Z,94140.06
2022-10-23T06:31:33.859Z,94141.69
2022-10-23T06:34:00.292Z,94122.41
2022-10-23T06:36:26.717Z,94113.38
2022-10-23T06:38:53.140Z,94101.53
2022-10-23T06:41:20.717Z,94087.03
2022-10-23T06:43:48.080Z,94064.53
2022-10-23T06:46:14.484Z,94023.53
2022-10-23T06:48:44.053Z,93978.94
2022-10-23T06:51:12.110Z,93939.50
2022-10-23T06:53:38.599Z,93901.72
2022-10-23T06:56:05.790Z,93852.03
2022-10-23T06:58:32.508Z,93825.28
2022-10-23T07:01:03.130Z,93786.63
2022-10-23T07:03:29.716Z,93768.50
2022-10-23T07:05:56.088Z,93738.31
2022-10-23T07:08:22.690Z,93716.16
2022-10-23T07:10:49.064Z,93699.25
2022-10-23T07:13:15.483Z,93658.56
2022-10-23T07:15:41.908Z,93628.38
2022-10-23T07:18:14.266Z,93599.97
2022-10-23T07:20:43.662Z,93564.88
2022-10-23T07:23:11.937Z,93521.16
2022-10-23T07:25:38.323Z,93486.47
2022-10-23T07:28:04.882Z,93456.25
2022-10-23T07:30:31.351Z,93433.63
2022-10-23T07:32:57.715Z,93407.81
2022-10-23T07:35:24.370Z,93367.91
2022-10-23T07:37:50.757Z,93338.69
2022-10-23T07:40:18.729Z,93300.91
2022-10-23T07:42:45.125Z,93269.84
2022-10-23T07:45:12.468Z,93241.59
2022-10-23T07:47:38.969Z,93224.66
2022-10-23T07:50:05.821Z,93194.75
2022-10-23T07:52:35.752Z,93153.19
2022-10-23T07:55:02.489Z,93141.00
2022-10-23T07:57:28.870Z,93108.66
2022-10-23T07:59:55.247Z,93061.06
2022-10-23T08:02:21.715Z,93044.41
2022-10-23T08:04:51.008Z,93036.63
2022-10-23T08:07:17.615Z,93002.69
2022-10-23T08:09:44.032Z,92971.56
2022-10-23T08:12:10.432Z,92960.72
2022-10-23T08:14:36.819Z,92947.47
2022-10-23T08:17:04.966Z,92917.47
2022-10-23T08:19:31.801Z,92883.47
2022-10-23T08:21:58.211Z,92861.31
2022-10-23T08:24:24.642Z,92860.84
2022-10-23T08:26:51.029Z,92858.53
2022-10-23T08:29:17.388Z,92906.06
2022-10-23T08:31:44.022Z,92910.25
2022-10-23T08:34:10.413Z,92907.16
2022-10-23T08:36:36.805Z,92898.81
2022-10-23T08:39:03.229Z,92898.34
2022-10-23T08:41:31.243Z,92879.00
2022-10-23T08:44:26.596Z,92872.31
2022-10-23T08:47:30.237Z,92850.41
2022-10-23T08:50:06.057Z,92829.53
2022-10-23T08:52:39.650Z,92801.84
2022-10-23T08:55:12.178Z,92789.88
2022-10-23T08:57:43.754Z,92762.16
2022-10-23T09:00:15.099Z,92717.88
2022-10-23T09:02:44.921Z,92694.09
2022-10-23T09:05:36.392Z,92675.25
2022-10-23T09:08:30.133Z,92645.91
2022-10-23T09:11:15.568Z,92616.06
2022-10-23T09:14:00.902Z,92581.72
2022-10-23T09:16:53.422Z,92562.34
2022-10-23T09:19:24.647Z,92526.94
2022-10-23T09:21:51.044Z,92509.06
2022-10-23T09:24:19.332Z,92502.53
2022-10-23T09:26:48.345Z,92509.66
2022-10-23T09:29:32.740Z,92507.81
2022-10-23T09:32:00.403Z,92525.16
2022-10-23T09:34:31.348Z,92531.25
2022-10-23T09:37:02.999Z,92534.94
2022-10-23T09:39:33.806Z,92528.13
2022-10-23T09:42:02.343Z,92526.00
2022-10-23T09:44:30.578Z,92528.13
2022-10-23T09:47:07.005Z,92540.50
2022-10-23T09:49:34.067Z,92562.09
2022-10-23T09:52:12.944Z,92551.31
2022-10-23T09:54:44.538Z,92566.09
2022-10-23T09:57:30.937Z,92569.53
2022-10-23T10:00:04.292Z,92597.97
2022-10-23T10:02:32.490Z,92617.72
2022-10-23T10:04:59.011Z,92639.56
2022-10-23T10:07:32.184Z,92638.53
2022-10-23T10:10:01.152Z,92629.31
2022-10-23T10:12:46.170Z,92644.63
2022-10-23T10:15:28.877Z,92659.09
2022-10-23T10:18:24.753Z,92678.59
2022-10-23T10:21:26.621Z,92678.34
2022-10-23T10:24:19.177Z,92677.53
2022-10-23T10:27:15.239Z,92669.38
2022-10-23T10:29:50.278Z,92680.47
2022-10-23T10:32:35.827Z,92733.19
2022-10-23T10:35:33.485Z,92838.66
2022-10-23T10:38:15.173Z,92963.69
2022-10-23T10:40:42.698Z,93080.78
2022-10-23T10:43:27.875Z,93255.94
2022-10-23T10:46:12.581Z,93442.22
2022-10-23T10:49:18.709Z,93601.56
2022-10-23T10:52:16.179Z,93673.34
2022-10-23T10:55:11.941Z,93697.34
2022-10-23T10:57:40.335Z,93740.91
2022-10-23T11:00:15.139Z,93797.91
2022-10-23T11:02:46.038Z,93796.47
2022-10-23T11:05:27.802Z,93812.22
2022-10-23T11:07:57.038Z,93835.34
2022-10-23T11:10:23.502Z,93821.72
2022-10-23T11:12:50.117Z,93898.94
2022-10-23T11:15:20.750Z,93929.91
2022-10-23T11:18:11.115Z,93987.84
2022-10-23T11:20:43.554Z,94092.56
2022-10-23T11:23:28.109Z,94130.78
2022-10-23T11:26:24.029Z,94192.09
2022-10-23T11:29:26.117Z,94269.53
2022-10-23T11:32:26.738Z,94321.34
2022-10-23T11:34:59.079Z,94434.63
2022-10-23T11:37:26.777Z,94486.13
2022-10-23T11:40:22.035Z,94577.16
2022-10-23T11:42:48.869Z,94645.91
2022-10-23T11:45:33.705Z,94699.84
2022-10-23T11:48:19.041Z,94752.00
2022-10-23T11:50:45.397Z,94785.03
2022-10-23T11:53:33.094Z,94759.88
2022-10-23T11:56:06.625Z,94864.88
2022-10-23T11:58:43.182Z,94943.56
2022-10-23T12:01:19.464Z,94954.94
2022-10-23T12:04:16.587Z,94889.91
2022-10-23T12:06:45.903Z,95045.38
2022-10-23T12:09:25.725Z,95201.31
2022-10-23T12:12:16.139Z,95428.41
2022-10-23T12:14:47.011Z,95677.38
2022-10-23T12:17:22.540Z,95768.72
2022-10-23T12:19:50.531Z,95813.78
2022-10-23T12:22:16.913Z,95959.56
2022-10-23T12:24:53.840Z,95863.75
2022-10-23T12:27:26.382Z,95772.03
2022-10-23T12:29:59.450Z,95764.66
2022-10-23T12:32:54.153Z,95847.03
2022-10-23T12:35:27.360Z,95865.38
2022-10-23T12:38:15.098Z,95819.72
2022-10-23T12:40:44.945Z,95923.28
2022-10-23T12:43:24.020Z,95938.16
2022-10-23T12:45:50.405Z,96035.06
2022-10-23T12:48:21.396Z,96100.53
2022-10-23T12:50:50.415Z,96212.59
2022-10-23T12:53:18.014Z,96370.56
2022-10-23T12:55:48.749Z,96529.47
2022-10-23T12:58:22.796Z,96618.03
2022-10-23T13:00:57.106Z,96681.16
2022-10-23T13:03:24.627Z,96726.34
2022-10-23T13:05:52.170Z,96801.91
2022-10-23T13:08:19.283Z,96810.66
2022-10-23T13:10:46.707Z,96886.94
2022-10-23T13:13:13.164Z,96889.28
2022-10-23T13:15:41.047Z,96822.34
2022-10-23T13:18:08.067Z,96819.44
2022-10-23T13:20:38.464Z,96787.06
2022-10-23T13:23:08.006Z,96824.97
2022-10-23T13:25:35.177Z,96768.56
2022-10-23T13:28:07.682Z,96726.91
2022-10-23T13:30:39.525Z,96759.41
2022-10-23T13:33:15.237Z,96722.03
2022-10-23T13:35:41.606Z,96609.53
2022-10-23T13:38:10.812Z,96563.59
2022-10-23T13:40:37.238Z,96627.81
2022-10-23T13:43:05.976Z,96671.22
2022-10-23T13:45:35.180Z,96752.97
2022-10-23T13:48:01.552Z,96758.63
2022-10-23T13:50:27.947Z,96802.66
2022-10-23T13:52:54.306Z,96857.78
2022-10-23T13:55:23.464Z,96882.75
2022-10-23T13:57:49.931Z,96883.56
2022-10-23T14:00:16.790Z,96870.13
2022-10-23T14:02:43.321Z,96865.56
2022-10-23T14:05:09.884Z,96820.56
2022-10-23T14:07:36.284Z,96779.06
2022-10-23T14:10:02.697Z,96731.00
2022-10-23T14:12:29.058Z,96731.31
2022-10-23T14:14:55.423Z,96682.75
2022-10-23T14:17:21.830Z,96624.19
2022-10-23T14:19:48.277Z,96566.13
2022-10-23T14:22:14.707Z,96549.78
2022-10-23T14:24:41.093Z,96447.63
2022-10-23T14:27:09.319Z,96357.78
2022-10-23T14:29:35.669Z,96334.94
2022-10-23T14:32:02.042Z,96297.00
2022-10-23T14:34:28.447Z,96330.41
2022-10-23T14:37:07.999Z,96309.59
2022-10-23T14:39:35.156Z,96235.00
2022-10-23T14:42:01.539Z,96223.16
2022-10-23T14:44:28.007Z,96174.25
2022-10-23T14:46:54.470Z,96115.38
2022-10-23T14:49:20.936Z,96136.72
2022-10-23T14:51:47.344Z,96185.41
2022-10-23T14:54:13.769Z,96222.28
2022-10-23T14:56:41.022Z,96225.94
2022-10-23T14:59:08.421Z,96174.78
2022-10-23T15:01:37.027Z,96206.50
2022-10-23T15:04:04.029Z,96286.84
2022-10-23T15:06:30.473Z,96327.16
2022-10-23T15:08:56.907Z,96312.38
2022-10-23T15:11:23.992Z,96360.72
2022-10-23T15:13:50.432Z,96429.13
2022-10-23T15:16:16.885Z,96503.78
2022-10-23T15:18:43.349Z,96555.34
2022-10-23T15:21:09.867Z,96548.75
2022-10-23T15:23:40.978Z,96512.78
2022-10-23T15:26:09.289Z,96460.97
2022-10-23T15:28:35.701Z,96502.94
2022-10-23T15:31:02.187Z,96578.91
2022-10-23T15:33:28.624Z,96629.78
2022-10-23T15:35:55.354Z,96657.22
2022-10-23T15:38:22.468Z,96698.53
2022-10-23T15:40:49.015Z,96629.47
2022-10-23T15:43:15.609Z,96647.19
2022-10-23T15:45:42.108Z,96631.19
2022-10-23T15:48:08.728Z,96748.81
2022-10-23T15:50:35.590Z,96686.25
2022-10-23T15:53:02.027Z,96664.50
2022-10-23T15:55:28.473Z,96690.72
2022-10-23T15:57:55.310Z,96679.22
2022-10-23T16:00:21.778Z,96688.13
2022-10-23T16:02:48.294Z,96712.56
2022-10-23T16:05:17.276Z,96707.97
2022-10-23T16:07:43.745Z,96705.00
2022-10-23T16:10:10.109Z,96770.06
2022-10-23T16:12:36.504Z,96795.66
2022-10-23T16:15:02.990Z,96840.41
2022-10-23T16:17:29.377Z,96810.72
2022-10-23T16:19:55.736Z,96780.81
2022-10-23T16:22:22.169Z,96782.16
2022-10-23T16:24:48.539Z,96853.31
2022-10-23T16:27:14.998Z,96866.19
2022-10-23T16:29:41.389Z,96798.19
2022-10-23T16:32:07.760Z,96737.13
2022-10-23T16:34:34.209Z,96676.56
2022-10-23T16:37:00.569Z,96632.53
2022-10-23T16:39:27.002Z,96567.22
2022-10-23T16:41:53.380Z,96553.03
2022-10-23T16:44:19.833Z,96515.44
2022-10-23T16:46:46.258Z,96490.84
2022-10-23T16:49:13.903Z,96452.91
2022-10-23T16:51:40.276Z,96443.19
2022-10-23T16:54:06.701Z,96418.78
2022-10-23T16:56:33.130Z,96413.84
2022-10-23T17:01:31.552Z,96365.38
2022-10-23T17:03:58.193Z,96377.22
2022-10-23T17:06:27.982Z,96332.44
2022-10-23T17:08:54.710Z,96321.06
2022-10-23T17:11:48.026Z,96307.53
2022-10-23T17:14:17.374Z,96252.97
2022-10-23T17:16:48.863Z,96198.63
2022-10-23T17:19:39.777Z,96150.25
2022-10-23T17:22:02.998Z,96173.94
2022-10-23T17:24:29.461Z,96165.00
2022-10-23T17:26:56.169Z,96175.22
2022-10-23T17:29:22.558Z,96168.66
2022-10-23T17:31:49.745Z,96146.78
2022-10-23T17:34:18.455Z,96127.03
2022-10-23T17:36:46.909Z,96086.75
2022-10-23T17:39:14.434Z,96036.38
2022-10-23T17:41:41.337Z,95996.16
2022-10-23T17:44:07.784Z,95979.72
2022-10-23T17:46:34.211Z,95966.78
2022-10-23T17:51:29.955Z,95924.56
2022-10-23T17:53:57.460Z,95892.28
2022-10-23T17:56:25.777Z,95880.28
2022-10-23T17:58:53.289Z,95868.00
2022-10-23T18:01:27.609Z,95845.66
2022-10-23T18:03:54.861Z,95844.00
2022-10-23T18:06:29.538Z,95846.81
2022-10-23T18:08:56.363Z,95899.00
2022-10-23T18:11:24.427Z,95956.72
2022-10-23T18:13:50.871Z,96021.56
2022-10-23T18:16:17.386Z,96045.31
2022-10-23T18:18:44.393Z,96092.06
2022-10-23T18:21:10.800Z,96124.66
2022-10-23T18:23:37.200Z,96133.56
2022-10-23T18:26:04.124Z,96143.94
2022-10-23T18:28:30.725Z,96132.75
2022-10-23T18:30:57.306Z,96126.66
2022-10-23T18:33:23.926Z,96134.19
2022-10-23T18:35:50.449Z,96118.38
2022-10-23T18:38:16.855Z,96114.72
2022-10-23T18:40:43.376Z,96127.91
2022-10-23T18:43:14.832Z,96135.47
2022-10-23T18:45:42.057Z,96110.44
2022-10-23T18:48:08.446Z,96069.41
2022-10-23T18:50:38.105Z,96027.03
2022-10-23T18:53:04.598Z,95976.91
2022-10-23T18:55:31.070Z,95897.31
2022-10-23T18:57:57.869Z,95793.09
2022-10-23T19:00:24.313Z,95694.19
2022-10-23T19:02:52.368Z,95683.13
2022-10-23T19:05:19.278Z,95693.13
2022-10-23T19:07:45.890Z,95705.28
2022-10-23T19:10:15.796Z,95678.91
2022-10-23T19:12:42.806Z,95649.06
2022-10-23T19:15:09.968Z,95613.88
2022-10-23T19:17:36.376Z,95609.38
2022-10-23T19:20:10.710Z,95575.47
2022-10-23T19:22:37.088Z,95484.41
2022-10-23T19:25:11.031Z,95251.97
2022-10-23T19:27:37.745Z,95086.50
2022-10-23T19:30:06.479Z,94948.25
2022-10-23T19:32:32.841Z,94817.09
2022-10-23T19:34:59.775Z,94673.78
2022-10-23T19:37:26.183Z,94583.97
2022-10-23T19:39:52.551Z,94506.78
2022-10-23T19:42:19.001Z,94338.25
2022-10-23T19:44:45.378Z,94136.88
2022-10-23T19:47:11.809Z,93730.78
2022-10-23T19:49:38.295Z,93188.00
2022-10-23T19:52:04.897Z,92792.00
2022-10-23T19:54:31.306Z,92483.47
2022-10-23T19:56:57.750Z,92305.22
2022-10-23T19:59:24.142Z,92148.91
2022-10-23T20:01:50.592Z,92026.81
2022-10-23T20:04:18.364Z,91982.38
2022-10-23T20:06:44.846Z,91901.28
2022-10-23T20:09:11.279Z,91810.78
2022-10-23T20:11:38.390Z,91752.91
2022-10-23T20:14:05.034Z,91735.56
2022-10-23T20:16:34.731Z,91685.06
2022-10-23T20:19:06.752Z,91645.09
2022-10-23T20:21:35.624Z,91584.06
2022-10-23T20:24:02.087Z,91521.47
2022-10-23T20:26:28.571Z,91489.91
2022-10-23T20:28:55.496Z,91454.44
2022-10-23T20:31:23.163Z,91418.41
2022-10-23T20:33:49.746Z,91389.16
2022-10-23T20:36:26.269Z,91282.19
2022-10-23T20:38:52.699Z,91021.28
2022-10-23T20:41:19.633Z,90970.84
2022-10-23T20:43:46.042Z,90924.88
2022-10-23T20:46:12.464Z,90867.03
2022-10-23T20:48:40.228Z,90829.41
2022-10-23T20:51:08.479Z,90813.63
2022-10-23T20:53:35.626Z,90791.53
2022-10-23T20:56:09.458Z,90752.09
2022-10-23T20:58:35.866Z,90707.84
2022-10-23T21:01:10.074Z,90625.72
2022-10-23T21:03:37.084Z,90593.22
2022-10-23T21:06:11.102Z,90544.66
2022-10-23T21:08:37.986Z,90513.88
2022-10-23T21:11:04.588Z,90485.69
2022-10-23T21:13:32.400Z,90443.91
2022-10-23T21:15:58.997Z,90429.03
2022-10-23T21:18:45.090Z,90418.34
2022-10-23T21:21:11.897Z,90415.25
2022-10-23T21:23:38.528Z,90401.63
2022-10-23T21:26:07.329Z,90424.25
2022-10-23T21:28:34.060Z,90402.78
2022-10-23T21:31:08.364Z,90406.03
2022-10-23T21:33:35.011Z,90418.38
2022-10-23T21:36:13.498Z,90420.09
2022-10-23T21:38:40.460Z,90409.56
2022-10-23T21:41:11.571Z,90422.28
2022-10-23T21:43:38.024Z,90411.75
2022-10-23T21:46:05.278Z,90414.56
2022-10-23T21:48:32.346Z,90429.41
2022-10-23T21:50:59.329Z,90449.66
2022-10-23T21:53:26.087Z,90445.19
2022-10-23T21:55:52.492Z,90419.03
2022-10-23T21:58:18.917Z,90401.72
2022-10-23T22:00:45.297Z,90412.41
2022-10-23T22:03:11.677Z,90378.38
2022-10-23T22:05:38.096Z,90394.31
2022-10-23T22:08:04.678Z,90399.09
2022-10-23T22:10:31.036Z,90408.72
2022-10-23T22:12:57.421Z,90396.94
2022-10-23T22:15:23.783Z,90409.00
2022-10-23T22:17:50.159Z,90380.81
2022-10-23T22:20:16.670Z,90391.06
2022-10-23T22:22:43.081Z,90388.88
2022-10-23T22:25:09.616Z,90420.78
2022-10-23T22:27:37.534Z,90430.97
2022-10-23T22:30:05.308Z,90424.97
2022-10-23T22:32:31.710Z,90428.50
2022-10-23T22:34:58.068Z,90444.44
2022-10-23T22:37:24.459Z,90456.03
2022-10-23T22:39:52.018Z,90484.94
2022-10-23T22:42:19.546Z,90517.56
2022-10-23T22:44:45.890Z,90516.00
2022-10-23T22:47:12.246Z,90539.19
2022-10-23T22:49:39.346Z,90496.22
2022-10-23T22:52:05.757Z,90516.94
2022-10-23T22:54:32.261Z,90533.31
2022-10-23T22:56:58.736Z,90558.66
2022-10-23T22:59:25.127Z,90582.75
2022-10-23T23:01:51.537Z,90594.19
2022-10-23T23:07:05.952Z,90646.03
2022-10-23T23:09:32.354Z,90668.41
2022-10-23T23:11:58.730Z,90686.16
2022-10-23T23:14:25.201Z,90706.97
2022-10-23T23:16:54.448Z,90725.69
2022-10-23T23:19:22.800Z,90724.09
2022-10-23T23:21:49.537Z,90745.53
2022-10-23T23:24:15.896Z,90750.16
2022-10-23T23:26:42.270Z,90783.88
2022-10-23T23:29:08.627Z,90797.28
2022-10-23T23:31:35.010Z,90783.56
2022-10-23T23:34:01.429Z,90764.41
2022-10-23T23:36:27.884Z,90775.53
2022-10-23T23:38:55.459Z,90792.94
2022-10-23T23:41:22.063Z,90804.53
2022-10-23T23:43:48.490Z,90815.59
2022-10-23T23:46:14.924Z,90811.13
2022-10-23T23:48:42.569Z,90800.03
2022-10-23T23:51:09.163Z,90801.28
2022-10-23T23:53:35.548Z,90717.31
2022-10-23T23:56:01.936Z,90691.88
2022-10-23T23:58:28.316Z,90647.31
